sensor_id;sensor_type;location;lat;lon;timestamp;P1;durP1;ratioP1;P2;durP2;ratioP2
67544;SDS011;54380;47.770;11.150;2023-03-01T00:00:49;22.25;;;9.38;;
67544;SDS011;54380;47.770;11.150;2023-03-01T00:03:16;26.90;;;11.07;;
67544;SDS011;54380;47.770;11.150;2023-03-01T00:05:43;18.25;;;7.75;;
67544;SDS011;54380;47.770;11.150;2023-03-01T00:08:12;28.77;;;10.93;;
67544;SDS011;54380;47.770;11.150;2023-03-01T00:10:39;23.92;;;10.38;;
67544;SDS011;54380;47.770;11.150;2023-03-01T00:13:05;23.92;;;9.25;;
67544;SDS011;54380;47.770;11.150;2023-03-01T00:15:32;22.85;;;8.88;;
67544;SDS011;54380;47.770;11.150;2023-03-01T00:18:01;28.55;;;11.00;;
67544;SDS011;54380;47.770;11.150;2023-03-01T00:20:28;21.55;;;8.32;;
67544;SDS011;54380;47.770;11.150;2023-03-01T00:22:54;24.15;;;9.07;;
67544;SDS011;54380;47.770;11.150;2023-03-01T00:25:22;22.77;;;8.15;;
67544;SDS011;54380;47.770;11.150;2023-03-01T00:27:49;27.33;;;9.43;;
67544;SDS011;54380;47.770;11.150;2023-03-01T00:30:16;27.17;;;11.93;;
67544;SDS011;54380;47.770;11.150;2023-03-01T00:32:43;26.08;;;10.60;;
67544;SDS011;54380;47.770;11.150;2023-03-01T00:35:09;24.27;;;10.07;;
67544;SDS011;54380;47.770;11.150;2023-03-01T00:37:36;21.63;;;9.27;;
67544;SDS011;54380;47.770;11.150;2023-03-01T00:40:03;29.52;;;11.45;;
67544;SDS011;54380;47.770;11.150;2023-03-01T00:42:33;19.40;;;8.35;;
67544;SDS011;54380;47.770;11.150;2023-03-01T00:45:00;26.17;;;9.95;;
67544;SDS011;54380;47.770;11.150;2023-03-01T00:47:29;23.00;;;9.40;;
67544;SDS011;54380;47.770;11.150;2023-03-01T00:49:55;22.73;;;8.60;;
67544;SDS011;54380;47.770;11.150;2023-03-01T00:52:22;26.45;;;10.88;;
67544;SDS011;54380;47.770;11.150;2023-03-01T00:54:51;20.70;;;8.25;;
67544;SDS011;54380;47.770;11.150;2023-03-01T00:57:18;25.63;;;9.48;;
67544;SDS011;54380;47.770;11.150;2023-03-01T00:59:46;22.02;;;8.57;;
67544;SDS011;54380;47.770;11.150;2023-03-01T01:02:13;27.77;;;10.02;;
67544;SDS011;54380;47.770;11.150;2023-03-01T01:04:40;25.10;;;10.20;;
67544;SDS011;54380;47.770;11.150;2023-03-01T01:07:06;35.90;;;12.63;;
67544;SDS011;54380;47.770;11.150;2023-03-01T01:09:33;28.77;;;11.32;;
67544;SDS011;54380;47.770;11.150;2023-03-01T01:12:00;23.13;;;9.98;;
67544;SDS011;54380;47.770;11.150;2023-03-01T01:14:27;23.83;;;8.27;;
67544;SDS011;54380;47.770;11.150;2023-03-01T01:16:55;24.33;;;10.18;;
67544;SDS011;54380;47.770;11.150;2023-03-01T01:19:22;24.52;;;10.18;;
67544;SDS011;54380;47.770;11.150;2023-03-01T01:21:50;31.17;;;11.57;;
67544;SDS011;54380;47.770;11.150;2023-03-01T01:24:17;28.55;;;11.50;;
67544;SDS011;54380;47.770;11.150;2023-03-01T01:26:44;25.35;;;9.70;;
67544;SDS011;54380;47.770;11.150;2023-03-01T01:29:12;22.95;;;8.57;;
67544;SDS011;54380;47.770;11.150;2023-03-01T01:31:39;25.20;;;9.15;;
67544;SDS011;54380;47.770;11.150;2023-03-01T01:34:12;28.75;;;10.85;;
67544;SDS011;54380;47.770;11.150;2023-03-01T01:36:40;26.60;;;10.77;;
67544;SDS011;54380;47.770;11.150;2023-03-01T01:39:07;27.88;;;11.57;;
67544;SDS011;54380;47.770;11.150;2023-03-01T01:41:34;25.80;;;9.52;;
67544;SDS011;54380;47.770;11.150;2023-03-01T01:44:12;25.73;;;10.40;;
67544;SDS011;54380;47.770;11.150;2023-03-01T01:46:41;22.90;;;8.38;;
67544;SDS011;54380;47.770;11.150;2023-03-01T01:49:27;25.33;;;10.45;;
67544;SDS011;54380;47.770;11.150;2023-03-01T01:52:00;22.83;;;9.07;;
67544;SDS011;54380;47.770;11.150;2023-03-01T01:54:35;27.85;;;11.02;;
67544;SDS011;54380;47.770;11.150;2023-03-01T01:57:07;26.88;;;10.63;;
67544;SDS011;54380;47.770;11.150;2023-03-01T01:59:38;25.98;;;10.85;;
67544;SDS011;54380;47.770;11.150;2023-03-01T02:02:07;25.80;;;9.57;;
67544;SDS011;54380;47.770;11.150;2023-03-01T02:04:35;25.27;;;10.27;;
67544;SDS011;54380;47.770;11.150;2023-03-01T02:07:03;24.75;;;9.25;;
67544;SDS011;54380;47.770;11.150;2023-03-01T02:09:33;21.50;;;8.05;;
67544;SDS011;54380;47.770;11.150;2023-03-01T02:12:02;29.25;;;11.02;;
67544;SDS011;54380;47.770;11.150;2023-03-01T02:14:30;25.20;;;9.82;;
67544;SDS011;54380;47.770;11.150;2023-03-01T02:16:57;26.08;;;9.25;;
67544;SDS011;54380;47.770;11.150;2023-03-01T02:19:27;24.13;;;9.68;;
67544;SDS011;54380;47.770;11.150;2023-03-01T02:22:05;26.15;;;8.50;;
67544;SDS011;54380;47.770;11.150;2023-03-01T02:24:45;20.52;;;7.88;;
67544;SDS011;54380;47.770;11.150;2023-03-01T02:27:19;21.75;;;7.65;;
67544;SDS011;54380;47.770;11.150;2023-03-01T02:29:52;26.23;;;10.50;;
67544;SDS011;54380;47.770;11.150;2023-03-01T02:32:19;19.75;;;8.20;;
67544;SDS011;54380;47.770;11.150;2023-03-01T02:34:51;22.52;;;7.28;;
67544;SDS011;54380;47.770;11.150;2023-03-01T02:37:19;21.98;;;8.82;;
67544;SDS011;54380;47.770;11.150;2023-03-01T02:39:53;24.63;;;10.00;;
67544;SDS011;54380;47.770;11.150;2023-03-01T02:42:26;22.05;;;8.88;;
67544;SDS011;54380;47.770;11.150;2023-03-01T02:44:58;20.80;;;7.95;;
67544;SDS011;54380;47.770;11.150;2023-03-01T02:47:25;22.98;;;8.13;;
67544;SDS011;54380;47.770;11.150;2023-03-01T02:49:52;22.38;;;7.40;;
67544;SDS011;54380;47.770;11.150;2023-03-01T02:52:24;19.45;;;7.70;;
67544;SDS011;54380;47.770;11.150;2023-03-01T02:54:58;24.90;;;9.30;;
67544;SDS011;54380;47.770;11.150;2023-03-01T02:57:27;23.10;;;8.52;;
67544;SDS011;54380;47.770;11.150;2023-03-01T02:59:57;23.10;;;7.85;;
67544;SDS011;54380;47.770;11.150;2023-03-01T03:02:34;20.75;;;8.32;;
67544;SDS011;54380;47.770;11.150;2023-03-01T03:05:10;25.38;;;9.25;;
67544;SDS011;54380;47.770;11.150;2023-03-01T03:07:39;25.17;;;7.85;;
67544;SDS011;54380;47.770;11.150;2023-03-01T03:10:09;20.40;;;7.65;;
67544;SDS011;54380;47.770;11.150;2023-03-01T03:12:38;22.98;;;8.05;;
67544;SDS011;54380;47.770;11.150;2023-03-01T03:15:08;21.55;;;7.82;;
67544;SDS011;54380;47.770;11.150;2023-03-01T03:17:39;22.40;;;8.82;;
67544;SDS011;54380;47.770;11.150;2023-03-01T03:20:07;19.33;;;7.82;;
67544;SDS011;54380;47.770;11.150;2023-03-01T03:22:38;22.92;;;8.60;;
67544;SDS011;54380;47.770;11.150;2023-03-01T03:25:06;23.05;;;9.18;;
67544;SDS011;54380;47.770;11.150;2023-03-01T03:27:36;21.13;;;8.10;;
67544;SDS011;54380;47.770;11.150;2023-03-01T03:30:05;19.67;;;6.63;;
67544;SDS011;54380;47.770;11.150;2023-03-01T03:32:36;21.27;;;8.82;;
67544;SDS011;54380;47.770;11.150;2023-03-01T03:35:03;20.80;;;8.65;;
67544;SDS011;54380;47.770;11.150;2023-03-01T03:37:35;19.65;;;7.55;;
67544;SDS011;54380;47.770;11.150;2023-03-01T03:40:21;20.98;;;7.93;;
67544;SDS011;54380;47.770;11.150;2023-03-01T03:42:48;24.98;;;9.43;;
67544;SDS011;54380;47.770;11.150;2023-03-01T03:45:15;20.92;;;8.48;;
67544;SDS011;54380;47.770;11.150;2023-03-01T03:47:43;24.55;;;9.15;;
67544;SDS011;54380;47.770;11.150;2023-03-01T03:50:11;23.27;;;8.55;;
67544;SDS011;54380;47.770;11.150;2023-03-01T03:52:39;28.02;;;10.18;;
67544;SDS011;54380;47.770;11.150;2023-03-01T03:55:06;27.63;;;11.00;;
67544;SDS011;54380;47.770;11.150;2023-03-01T03:57:37;29.20;;;10.55;;
67544;SDS011;54380;47.770;11.150;2023-03-01T04:00:05;24.30;;;9.15;;
67544;SDS011;54380;47.770;11.150;2023-03-01T04:02:40;22.63;;;9.07;;
67544;SDS011;54380;47.770;11.150;2023-03-01T04:05:09;20.17;;;7.70;;
67544;SDS011;54380;47.770;11.150;2023-03-01T04:07:37;26.92;;;8.75;;
67544;SDS011;54380;47.770;11.150;2023-03-01T04:10:05;24.02;;;8.38;;
67544;SDS011;54380;47.770;11.150;2023-03-01T04:12:35;21.30;;;8.07;;
67544;SDS011;54380;47.770;11.150;2023-03-01T04:15:02;19.45;;;7.38;;
67544;SDS011;54380;47.770;11.150;2023-03-01T04:17:39;20.67;;;8.18;;
67544;SDS011;54380;47.770;11.150;2023-03-01T04:20:06;19.73;;;7.57;;
67544;SDS011;54380;47.770;11.150;2023-03-01T04:22:37;21.35;;;8.45;;
67544;SDS011;54380;47.770;11.150;2023-03-01T04:25:05;22.30;;;8.10;;
67544;SDS011;54380;47.770;11.150;2023-03-01T04:27:32;23.40;;;8.27;;
67544;SDS011;54380;47.770;11.150;2023-03-01T04:29:59;21.40;;;8.20;;
67544;SDS011;54380;47.770;11.150;2023-03-01T04:32:26;24.88;;;9.45;;
67544;SDS011;54380;47.770;11.150;2023-03-01T04:34:53;24.52;;;9.15;;
67544;SDS011;54380;47.770;11.150;2023-03-01T04:37:22;25.30;;;9.52;;
67544;SDS011;54380;47.770;11.150;2023-03-01T04:39:50;22.50;;;8.00;;
67544;SDS011;54380;47.770;11.150;2023-03-01T04:42:17;20.45;;;7.80;;
67544;SDS011;54380;47.770;11.150;2023-03-01T04:44:44;22.48;;;9.85;;
67544;SDS011;54380;47.770;11.150;2023-03-01T04:47:11;24.55;;;8.38;;
67544;SDS011;54380;47.770;11.150;2023-03-01T04:49:39;22.52;;;6.75;;
67544;SDS011;54380;47.770;11.150;2023-03-01T04:52:05;20.02;;;7.18;;
67544;SDS011;54380;47.770;11.150;2023-03-01T04:54:33;19.77;;;7.53;;
67544;SDS011;54380;47.770;11.150;2023-03-01T04:57:01;26.38;;;11.10;;
67544;SDS011;54380;47.770;11.150;2023-03-01T04:59:29;21.38;;;7.95;;
67544;SDS011;54380;47.770;11.150;2023-03-01T05:01:56;25.25;;;7.63;;
67544;SDS011;54380;47.770;11.150;2023-03-01T05:04:23;20.40;;;6.93;;
67544;SDS011;54380;47.770;11.150;2023-03-01T05:06:50;24.25;;;9.43;;
67544;SDS011;54380;47.770;11.150;2023-03-01T05:09:17;27.98;;;10.77;;
67544;SDS011;54380;47.770;11.150;2023-03-01T05:11:45;25.63;;;10.98;;
67544;SDS011;54380;47.770;11.150;2023-03-01T05:14:12;23.95;;;9.30;;
67544;SDS011;54380;47.770;11.150;2023-03-01T05:16:39;25.23;;;10.25;;
67544;SDS011;54380;47.770;11.150;2023-03-01T05:19:06;26.60;;;10.73;;
67544;SDS011;54380;47.770;11.150;2023-03-01T05:21:41;23.48;;;8.85;;
67544;SDS011;54380;47.770;11.150;2023-03-01T05:24:27;21.83;;;7.78;;
67544;SDS011;54380;47.770;11.150;2023-03-01T05:26:56;19.38;;;7.82;;
67544;SDS011;54380;47.770;11.150;2023-03-01T05:29:24;21.13;;;7.28;;
67544;SDS011;54380;47.770;11.150;2023-03-01T05:31:52;19.50;;;7.68;;
67544;SDS011;54380;47.770;11.150;2023-03-01T05:34:22;19.42;;;6.88;;
67544;SDS011;54380;47.770;11.150;2023-03-01T05:36:49;20.33;;;7.20;;
67544;SDS011;54380;47.770;11.150;2023-03-01T05:39:19;21.05;;;7.95;;
67544;SDS011;54380;47.770;11.150;2023-03-01T05:41:52;21.08;;;7.50;;
67544;SDS011;54380;47.770;11.150;2023-03-01T05:44:20;19.95;;;7.05;;
67544;SDS011;54380;47.770;11.150;2023-03-01T05:46:48;18.30;;;6.60;;
67544;SDS011;54380;47.770;11.150;2023-03-01T05:49:15;19.77;;;7.13;;
67544;SDS011;54380;47.770;11.150;2023-03-01T05:51:43;18.13;;;7.13;;
67544;SDS011;54380;47.770;11.150;2023-03-01T05:54:14;22.90;;;6.93;;
67544;SDS011;54380;47.770;11.150;2023-03-01T05:56:41;19.55;;;7.38;;
67544;SDS011;54380;47.770;11.150;2023-03-01T05:59:08;18.40;;;7.00;;
67544;SDS011;54380;47.770;11.150;2023-03-01T06:01:36;17.85;;;6.60;;
67544;SDS011;54380;47.770;11.150;2023-03-01T06:04:03;20.08;;;8.07;;
67544;SDS011;54380;47.770;11.150;2023-03-01T06:06:33;20.13;;;7.68;;
67544;SDS011;54380;47.770;11.150;2023-03-01T06:09:00;18.50;;;6.72;;
67544;SDS011;54380;47.770;11.150;2023-03-01T06:11:27;20.08;;;7.35;;
67544;SDS011;54380;47.770;11.150;2023-03-01T06:13:54;21.02;;;7.22;;
67544;SDS011;54380;47.770;11.150;2023-03-01T06:16:21;20.60;;;7.40;;
67544;SDS011;54380;47.770;11.150;2023-03-01T06:18:49;22.30;;;7.53;;
67544;SDS011;54380;47.770;11.150;2023-03-01T06:21:16;19.00;;;7.05;;
67544;SDS011;54380;47.770;11.150;2023-03-01T06:23:42;19.90;;;7.00;;
67544;SDS011;54380;47.770;11.150;2023-03-01T06:26:09;19.98;;;7.93;;
67544;SDS011;54380;47.770;11.150;2023-03-01T06:28:36;18.80;;;6.55;;
67544;SDS011;54380;47.770;11.150;2023-03-01T06:31:03;19.58;;;7.53;;
67544;SDS011;54380;47.770;11.150;2023-03-01T06:33:30;25.77;;;8.32;;
67544;SDS011;54380;47.770;11.150;2023-03-01T06:35:58;17.73;;;6.85;;
67544;SDS011;54380;47.770;11.150;2023-03-01T06:38:25;16.63;;;6.43;;
67544;SDS011;54380;47.770;11.150;2023-03-01T06:40:52;18.70;;;6.25;;
67544;SDS011;54380;47.770;11.150;2023-03-01T06:43:20;19.30;;;7.07;;
67544;SDS011;54380;47.770;11.150;2023-03-01T06:45:47;21.15;;;7.63;;
67544;SDS011;54380;47.770;11.150;2023-03-01T06:48:13;18.92;;;7.53;;
67544;SDS011;54380;47.770;11.150;2023-03-01T06:50:40;22.58;;;7.63;;
67544;SDS011;54380;47.770;11.150;2023-03-01T06:53:08;18.42;;;6.28;;
67544;SDS011;54380;47.770;11.150;2023-03-01T06:55:35;20.35;;;7.00;;
67544;SDS011;54380;47.770;11.150;2023-03-01T06:58:02;20.48;;;8.02;;
67544;SDS011;54380;47.770;11.150;2023-03-01T07:00:29;18.42;;;7.25;;
67544;SDS011;54380;47.770;11.150;2023-03-01T07:02:57;17.15;;;5.97;;
67544;SDS011;54380;47.770;11.150;2023-03-01T07:05:25;21.25;;;7.43;;
67544;SDS011;54380;47.770;11.150;2023-03-01T07:07:52;17.08;;;6.25;;
67544;SDS011;54380;47.770;11.150;2023-03-01T07:10:21;18.15;;;6.05;;
67544;SDS011;54380;47.770;11.150;2023-03-01T07:12:48;18.27;;;6.30;;
67544;SDS011;54380;47.770;11.150;2023-03-01T07:15:14;26.13;;;7.25;;
67544;SDS011;54380;47.770;11.150;2023-03-01T07:17:41;17.27;;;6.25;;
67544;SDS011;54380;47.770;11.150;2023-03-01T07:20:11;20.85;;;7.50;;
67544;SDS011;54380;47.770;11.150;2023-03-01T07:22:39;17.63;;;5.80;;
67544;SDS011;54380;47.770;11.150;2023-03-01T07:25:06;20.50;;;7.55;;
67544;SDS011;54380;47.770;11.150;2023-03-01T07:27:35;20.10;;;6.72;;
67544;SDS011;54380;47.770;11.150;2023-03-01T07:30:02;21.00;;;6.85;;
67544;SDS011;54380;47.770;11.150;2023-03-01T07:32:30;21.02;;;7.40;;
67544;SDS011;54380;47.770;11.150;2023-03-01T07:34:57;18.55;;;6.78;;
67544;SDS011;54380;47.770;11.150;2023-03-01T07:37:24;17.95;;;6.95;;
67544;SDS011;54380;47.770;11.150;2023-03-01T07:39:51;21.35;;;7.07;;
67544;SDS011;54380;47.770;11.150;2023-03-01T07:42:18;18.63;;;7.43;;
67544;SDS011;54380;47.770;11.150;2023-03-01T07:44:46;19.33;;;6.60;;
67544;SDS011;54380;47.770;11.150;2023-03-01T07:47:12;19.73;;;8.05;;
67544;SDS011;54380;47.770;11.150;2023-03-01T07:49:39;19.00;;;6.80;;
67544;SDS011;54380;47.770;11.150;2023-03-01T07:52:06;16.95;;;6.68;;
67544;SDS011;54380;47.770;11.150;2023-03-01T07:54:33;20.88;;;7.63;;
67544;SDS011;54380;47.770;11.150;2023-03-01T07:56:59;20.73;;;6.85;;
67544;SDS011;54380;47.770;11.150;2023-03-01T07:59:26;19.88;;;7.45;;
67544;SDS011;54380;47.770;11.150;2023-03-01T08:01:56;21.02;;;7.03;;
67544;SDS011;54380;47.770;11.150;2023-03-01T08:04:23;20.65;;;8.27;;
67544;SDS011;54380;47.770;11.150;2023-03-01T08:06:53;19.80;;;6.85;;
67544;SDS011;54380;47.770;11.150;2023-03-01T08:09:21;16.55;;;6.38;;
67544;SDS011;54380;47.770;11.150;2023-03-01T08:11:48;20.08;;;6.30;;
67544;SDS011;54380;47.770;11.150;2023-03-01T08:14:14;22.38;;;7.97;;
67544;SDS011;54380;47.770;11.150;2023-03-01T08:16:41;23.48;;;7.88;;
67544;SDS011;54380;47.770;11.150;2023-03-01T08:19:10;19.70;;;7.05;;
67544;SDS011;54380;47.770;11.150;2023-03-01T08:21:38;18.67;;;7.28;;
67544;SDS011;54380;47.770;11.150;2023-03-01T08:24:05;18.92;;;7.18;;
67544;SDS011;54380;47.770;11.150;2023-03-01T08:26:33;16.35;;;5.90;;
67544;SDS011;54380;47.770;11.150;2023-03-01T08:29:00;19.85;;;7.40;;
67544;SDS011;54380;47.770;11.150;2023-03-01T08:31:28;18.85;;;7.72;;
67544;SDS011;54380;47.770;11.150;2023-03-01T08:33:58;21.08;;;7.85;;
67544;SDS011;54380;47.770;11.150;2023-03-01T08:36:28;26.52;;;8.38;;
67544;SDS011;54380;47.770;11.150;2023-03-01T08:38:57;19.70;;;7.57;;
67544;SDS011;54380;47.770;11.150;2023-03-01T08:41:24;23.15;;;8.13;;
67544;SDS011;54380;47.770;11.150;2023-03-01T08:43:51;19.00;;;7.53;;
67544;SDS011;54380;47.770;11.150;2023-03-01T08:46:19;19.17;;;6.88;;
67544;SDS011;54380;47.770;11.150;2023-03-01T08:48:45;22.35;;;6.97;;
67544;SDS011;54380;47.770;11.150;2023-03-01T08:51:13;21.60;;;8.63;;
67544;SDS011;54380;47.770;11.150;2023-03-01T08:53:43;20.42;;;8.45;;
67544;SDS011;54380;47.770;11.150;2023-03-01T08:56:10;18.65;;;7.53;;
67544;SDS011;54380;47.770;11.150;2023-03-01T08:58:37;20.77;;;7.15;;
67544;SDS011;54380;47.770;11.150;2023-03-01T09:01:06;17.70;;;6.40;;
67544;SDS011;54380;47.770;11.150;2023-03-01T09:03:34;18.70;;;6.95;;
67544;SDS011;54380;47.770;11.150;2023-03-01T09:06:01;22.48;;;7.40;;
67544;SDS011;54380;47.770;11.150;2023-03-01T09:08:29;21.95;;;7.55;;
67544;SDS011;54380;47.770;11.150;2023-03-01T09:10:57;19.33;;;8.13;;
67544;SDS011;54380;47.770;11.150;2023-03-01T09:13:24;22.10;;;7.82;;
67544;SDS011;54380;47.770;11.150;2023-03-01T09:15:52;16.40;;;5.43;;
67544;SDS011;54380;47.770;11.150;2023-03-01T09:18:18;21.90;;;7.03;;
67544;SDS011;54380;47.770;11.150;2023-03-01T09:20:45;22.27;;;7.90;;
67544;SDS011;54380;47.770;11.150;2023-03-01T09:23:12;18.17;;;7.20;;
67544;SDS011;54380;47.770;11.150;2023-03-01T09:25:39;19.75;;;7.28;;
67544;SDS011;54380;47.770;11.150;2023-03-01T09:28:07;23.95;;;8.80;;
67544;SDS011;54380;47.770;11.150;2023-03-01T09:30:43;18.30;;;7.00;;
67544;SDS011;54380;47.770;11.150;2023-03-01T09:33:10;19.25;;;6.85;;
67544;SDS011;54380;47.770;11.150;2023-03-01T09:35:40;22.05;;;7.80;;
67544;SDS011;54380;47.770;11.150;2023-03-01T09:38:12;19.77;;;7.65;;
67544;SDS011;54380;47.770;11.150;2023-03-01T09:40:41;18.02;;;6.90;;
67544;SDS011;54380;47.770;11.150;2023-03-01T09:43:13;20.35;;;7.82;;
67544;SDS011;54380;47.770;11.150;2023-03-01T09:45:45;18.92;;;7.00;;
67544;SDS011;54380;47.770;11.150;2023-03-01T09:48:15;22.65;;;8.18;;
67544;SDS011;54380;47.770;11.150;2023-03-01T09:50:45;19.13;;;7.10;;
67544;SDS011;54380;47.770;11.150;2023-03-01T09:53:16;19.83;;;6.70;;
67544;SDS011;54380;47.770;11.150;2023-03-01T09:55:45;18.90;;;6.57;;
67544;SDS011;54380;47.770;11.150;2023-03-01T09:58:25;20.10;;;7.70;;
67544;SDS011;54380;47.770;11.150;2023-03-01T10:00:57;22.00;;;8.38;;
67544;SDS011;54380;47.770;11.150;2023-03-01T10:03:30;18.35;;;7.32;;
67544;SDS011;54380;47.770;11.150;2023-03-01T10:06:04;19.38;;;6.43;;
67544;SDS011;54380;47.770;11.150;2023-03-01T10:08:47;21.58;;;7.45;;
67544;SDS011;54380;47.770;11.150;2023-03-01T10:11:21;19.08;;;6.65;;
67544;SDS011;54380;47.770;11.150;2023-03-01T10:13:56;21.05;;;7.13;;
67544;SDS011;54380;47.770;11.150;2023-03-01T10:16:28;20.27;;;7.05;;
67544;SDS011;54380;47.770;11.150;2023-03-01T10:19:05;17.90;;;7.22;;
67544;SDS011;54380;47.770;11.150;2023-03-01T10:21:38;18.52;;;6.97;;
67544;SDS011;54380;47.770;11.150;2023-03-01T10:24:10;18.77;;;6.80;;
67544;SDS011;54380;47.770;11.150;2023-03-01T10:26:43;19.55;;;6.88;;
67544;SDS011;54380;47.770;11.150;2023-03-01T10:29:15;20.52;;;7.97;;
67544;SDS011;54380;47.770;11.150;2023-03-01T10:31:43;20.13;;;7.45;;
67544;SDS011;54380;47.770;11.150;2023-03-01T10:34:12;19.98;;;7.47;;
67544;SDS011;54380;47.770;11.150;2023-03-01T10:36:42;19.33;;;7.50;;
67544;SDS011;54380;47.770;11.150;2023-03-01T10:39:11;19.17;;;6.97;;
67544;SDS011;54380;47.770;11.150;2023-03-01T10:41:53;18.70;;;6.63;;
67544;SDS011;54380;47.770;11.150;2023-03-01T10:44:36;19.33;;;6.40;;
67544;SDS011;54380;47.770;11.150;2023-03-01T10:47:08;18.05;;;6.63;;
67544;SDS011;54380;47.770;11.150;2023-03-01T10:49:51;20.25;;;7.38;;
67544;SDS011;54380;47.770;11.150;2023-03-01T10:52:23;19.17;;;6.47;;
67544;SDS011;54380;47.770;11.150;2023-03-01T10:54:52;19.65;;;6.57;;
67544;SDS011;54380;47.770;11.150;2023-03-01T10:57:24;20.42;;;7.90;;
67544;SDS011;54380;47.770;11.150;2023-03-01T11:05:16;21.23;;;7.20;;
67544;SDS011;54380;47.770;11.150;2023-03-01T11:07:49;21.38;;;6.10;;
67544;SDS011;54380;47.770;11.150;2023-03-01T11:10:19;21.08;;;6.85;;
67544;SDS011;54380;47.770;11.150;2023-03-01T11:12:48;18.10;;;5.97;;
67544;SDS011;54380;47.770;11.150;2023-03-01T11:15:24;20.35;;;7.22;;
67544;SDS011;54380;47.770;11.150;2023-03-01T11:17:53;16.80;;;5.70;;
67544;SDS011;54380;47.770;11.150;2023-03-01T11:20:34;17.30;;;6.05;;
67544;SDS011;54380;47.770;11.150;2023-03-01T11:23:04;19.40;;;6.55;;
67544;SDS011;54380;47.770;11.150;2023-03-01T11:25:36;31.48;;;7.60;;
67544;SDS011;54380;47.770;11.150;2023-03-01T11:28:07;22.42;;;6.45;;
67544;SDS011;54380;47.770;11.150;2023-03-01T11:30:43;20.70;;;7.63;;
67544;SDS011;54380;47.770;11.150;2023-03-01T11:33:35;21.13;;;7.35;;
67544;SDS011;54380;47.770;11.150;2023-03-01T11:36:08;18.30;;;6.65;;
67544;SDS011;54380;47.770;11.150;2023-03-01T11:38:43;18.63;;;6.43;;
67544;SDS011;54380;47.770;11.150;2023-03-01T11:41:12;19.88;;;7.40;;
67544;SDS011;54380;47.770;11.150;2023-03-01T11:43:44;18.80;;;6.93;;
67544;SDS011;54380;47.770;11.150;2023-03-01T11:46:35;16.38;;;5.78;;
67544;SDS011;54380;47.770;11.150;2023-03-01T11:49:17;18.23;;;6.35;;
67544;SDS011;54380;47.770;11.150;2023-03-01T11:52:12;18.83;;;6.15;;
67544;SDS011;54380;47.770;11.150;2023-03-01T11:54:53;20.95;;;7.38;;
67544;SDS011;54380;47.770;11.150;2023-03-01T11:57:36;20.13;;;6.38;;
67544;SDS011;54380;47.770;11.150;2023-03-01T12:00:21;21.55;;;6.65;;
67544;SDS011;54380;47.770;11.150;2023-03-01T12:09:04;21.08;;;8.27;;
67544;SDS011;54380;47.770;11.150;2023-03-01T12:11:47;18.67;;;6.95;;
67544;SDS011;54380;47.770;11.150;2023-03-01T12:14:32;20.70;;;6.90;;
67544;SDS011;54380;47.770;11.150;2023-03-01T12:17:30;19.20;;;6.63;;
67544;SDS011;54380;47.770;11.150;2023-03-01T12:20:25;18.02;;;6.25;;
67544;SDS011;54380;47.770;11.150;2023-03-01T12:23:05;16.83;;;5.80;;
67544;SDS011;54380;47.770;11.150;2023-03-01T12:25:58;20.67;;;6.90;;
67544;SDS011;54380;47.770;11.150;2023-03-01T12:28:35;21.42;;;8.10;;
67544;SDS011;54380;47.770;11.150;2023-03-01T12:34:31;18.55;;;6.60;;
67544;SDS011;54380;47.770;11.150;2023-03-01T12:40:10;21.35;;;6.35;;
67544;SDS011;54380;47.770;11.150;2023-03-01T12:42:52;21.85;;;6.93;;
67544;SDS011;54380;47.770;11.150;2023-03-01T12:45:32;18.92;;;6.22;;
67544;SDS011;54380;47.770;11.150;2023-03-01T12:48:15;19.85;;;7.53;;
67544;SDS011;54380;47.770;11.150;2023-03-01T12:50:53;18.50;;;6.97;;
67544;SDS011;54380;47.770;11.150;2023-03-01T12:53:27;22.75;;;7.53;;
67544;SDS011;54380;47.770;11.150;2023-03-01T12:55:58;17.25;;;6.07;;
67544;SDS011;54380;47.770;11.150;2023-03-01T12:58:29;18.83;;;6.50;;
67544;SDS011;54380;47.770;11.150;2023-03-01T13:01:17;17.58;;;5.88;;
67544;SDS011;54380;47.770;11.150;2023-03-01T13:04:02;21.40;;;7.63;;
67544;SDS011;54380;47.770;11.150;2023-03-01T13:06:44;20.20;;;7.65;;
67544;SDS011;54380;47.770;11.150;2023-03-01T13:09:27;20.08;;;7.25;;
67544;SDS011;54380;47.770;11.150;2023-03-01T13:12:01;21.40;;;8.15;;
67544;SDS011;54380;47.770;11.150;2023-03-01T13:14:36;19.70;;;7.35;;
67544;SDS011;54380;47.770;11.150;2023-03-01T13:17:30;22.20;;;8.38;;
67544;SDS011;54380;47.770;11.150;2023-03-01T13:19:59;21.23;;;7.70;;
67544;SDS011;54380;47.770;11.150;2023-03-01T13:22:28;19.27;;;7.35;;
67544;SDS011;54380;47.770;11.150;2023-03-01T13:25:10;20.95;;;8.02;;
67544;SDS011;54380;47.770;11.150;2023-03-01T13:27:40;21.55;;;7.97;;
67544;SDS011;54380;47.770;11.150;2023-03-01T13:36:07;19.85;;;6.70;;
67544;SDS011;54380;47.770;11.150;2023-03-01T13:38:45;22.60;;;8.30;;
67544;SDS011;54380;47.770;11.150;2023-03-01T13:41:15;20.38;;;7.47;;
67544;SDS011;54380;47.770;11.150;2023-03-01T13:43:44;22.63;;;6.32;;
67544;SDS011;54380;47.770;11.150;2023-03-01T13:46:15;19.38;;;7.35;;
67544;SDS011;54380;47.770;11.150;2023-03-01T13:48:47;19.35;;;6.35;;
67544;SDS011;54380;47.770;11.150;2023-03-01T13:51:20;21.55;;;7.47;;
67544;SDS011;54380;47.770;11.150;2023-03-01T13:53:50;22.50;;;7.97;;
67544;SDS011;54380;47.770;11.150;2023-03-01T13:56:21;24.38;;;9.18;;
67544;SDS011;54380;47.770;11.150;2023-03-01T13:58:52;21.85;;;7.65;;
67544;SDS011;54380;47.770;11.150;2023-03-01T14:01:22;21.90;;;7.68;;
67544;SDS011;54380;47.770;11.150;2023-03-01T14:03:52;22.98;;;7.88;;
67544;SDS011;54380;47.770;11.150;2023-03-01T14:06:20;20.80;;;7.95;;
67544;SDS011;54380;47.770;11.150;2023-03-01T14:08:52;20.73;;;7.70;;
67544;SDS011;54380;47.770;11.150;2023-03-01T14:14:30;21.35;;;7.45;;
67544;SDS011;54380;47.770;11.150;2023-03-01T14:17:14;20.70;;;7.10;;
67544;SDS011;54380;47.770;11.150;2023-03-01T14:19:56;20.35;;;7.45;;
67544;SDS011;54380;47.770;11.150;2023-03-01T14:22:25;20.58;;;7.07;;
67544;SDS011;54380;47.770;11.150;2023-03-01T14:24:55;20.60;;;8.43;;
67544;SDS011;54380;47.770;11.150;2023-03-01T14:27:24;18.40;;;6.35;;
67544;SDS011;54380;47.770;11.150;2023-03-01T14:29:54;24.35;;;9.30;;
67544;SDS011;54380;47.770;11.150;2023-03-01T14:32:22;25.23;;;9.32;;
67544;SDS011;54380;47.770;11.150;2023-03-01T14:34:51;22.50;;;8.40;;
67544;SDS011;54380;47.770;11.150;2023-03-01T14:37:20;20.80;;;7.22;;
67544;SDS011;54380;47.770;11.150;2023-03-01T14:39:48;22.08;;;7.93;;
67544;SDS011;54380;47.770;11.150;2023-03-01T14:42:15;23.75;;;8.68;;
67544;SDS011;54380;47.770;11.150;2023-03-01T14:44:46;21.15;;;7.75;;
67544;SDS011;54380;47.770;11.150;2023-03-01T14:47:15;24.30;;;9.20;;
67544;SDS011;54380;47.770;11.150;2023-03-01T14:49:46;22.27;;;7.50;;
67544;SDS011;54380;47.770;11.150;2023-03-01T14:52:17;26.05;;;8.10;;
67544;SDS011;54380;47.770;11.150;2023-03-01T14:54:48;26.27;;;9.35;;
67544;SDS011;54380;47.770;11.150;2023-03-01T14:57:17;19.88;;;7.18;;
67544;SDS011;54380;47.770;11.150;2023-03-01T14:59:48;27.52;;;10.20;;
67544;SDS011;54380;47.770;11.150;2023-03-01T15:02:17;21.38;;;8.18;;
67544;SDS011;54380;47.770;11.150;2023-03-01T15:04:46;21.40;;;8.57;;
67544;SDS011;54380;47.770;11.150;2023-03-01T15:07:15;20.40;;;7.55;;